createdAt,value
2018-10-02T00:02:22.915Z,2.03
2018-10-02T00:04:51.751Z,2.23
2018-10-02T00:07:20.663Z,2.03
2018-10-02T00:09:49.468Z,2.10
2018-10-02T00:12:23.543Z,2.20
2018-10-02T00:14:53.726Z,1.77
2018-10-02T00:17:23.782Z,2.20
2018-10-02T00:19:52.653Z,1.80
2018-10-02T00:22:21.497Z,2.00
2018-10-02T00:24:50.326Z,2.23
2018-10-02T00:27:19.171Z,2.63
2018-10-02T00:29:48.077Z,1.80
2018-10-02T00:32:16.963Z,2.50
2018-10-02T00:34:45.820Z,2.23
2018-10-02T00:37:14.703Z,2.23
2018-10-02T00:39:43.507Z,1.53
2018-10-02T00:42:12.349Z,2.27
2018-10-02T00:44:41.151Z,2.23
2018-10-02T00:47:09.984Z,2.30
2018-10-02T00:49:38.783Z,2.47
2018-10-02T00:52:07.746Z,2.00
2018-10-02T00:54:36.513Z,2.70
2018-10-02T00:57:05.561Z,1.90
2018-10-02T00:59:34.522Z,1.93
2018-10-02T01:02:03.303Z,2.10
2018-10-02T01:04:32.111Z,2.33
2018-10-02T01:07:00.965Z,2.20
2018-10-02T01:09:29.877Z,1.90
2018-10-02T01:11:58.693Z,1.93
2018-10-02T01:14:27.511Z,1.90
2018-10-02T01:16:56.385Z,2.27
2018-10-02T01:19:25.181Z,2.00
2018-10-02T01:21:54.116Z,1.90
2018-10-02T01:24:22.908Z,1.90
2018-10-02T01:26:51.722Z,2.20
2018-10-02T01:29:20.552Z,2.40
2018-10-02T01:31:49.424Z,2.43
2018-10-02T01:34:18.253Z,2.73
2018-10-02T01:36:47.143Z,2.80
2018-10-02T01:39:15.961Z,2.73
2018-10-02T01:41:44.793Z,2.80
2018-10-02T01:44:13.590Z,2.70
2018-10-02T01:46:42.420Z,1.90
2018-10-02T01:49:11.266Z,1.80
2018-10-02T01:51:40.046Z,2.10
2018-10-02T01:54:08.863Z,2.00
2018-10-02T01:56:37.722Z,2.03
2018-10-02T01:59:06.516Z,2.53
2018-10-02T02:01:35.299Z,2.30
2018-10-02T02:04:04.130Z,2.20
2018-10-02T02:06:32.899Z,2.73
2018-10-02T02:09:01.702Z,2.63
2018-10-02T02:11:30.556Z,2.70
2018-10-02T02:13:59.349Z,2.77
2018-10-02T02:16:28.141Z,2.67
2018-10-02T02:18:56.912Z,2.97
2018-10-02T02:21:25.705Z,2.70
2018-10-02T02:23:54.549Z,2.77
2018-10-02T02:26:23.353Z,3.00
2018-10-02T02:28:52.160Z,2.60
2018-10-02T02:31:20.908Z,3.20
2018-10-02T02:33:49.708Z,3.60
2018-10-02T02:36:18.566Z,2.73
2018-10-02T02:38:47.361Z,2.23
2018-10-02T02:41:16.171Z,3.33
2018-10-02T02:43:45.000Z,3.10
2018-10-02T02:46:13.876Z,2.60
2018-10-02T02:48:47.970Z,2.93
2018-10-02T02:51:20.033Z,3.20
2018-10-02T02:53:48.843Z,2.73
2018-10-02T02:56:17.626Z,2.63
2018-10-02T02:58:46.428Z,3.23
2018-10-02T03:01:15.266Z,3.17
2018-10-02T03:03:44.112Z,3.10
2018-10-02T03:06:12.901Z,3.23
2018-10-02T03:08:41.848Z,3.33
2018-10-02T03:11:10.707Z,2.50
2018-10-02T03:13:39.537Z,3.10
2018-10-02T03:16:08.355Z,2.60
2018-10-02T03:18:37.195Z,3.40
2018-10-02T03:21:06.006Z,2.37
2018-10-02T03:23:34.812Z,2.67
2018-10-02T03:26:03.613Z,2.77
2018-10-02T03:28:32.438Z,3.43
2018-10-02T03:31:01.202Z,3.20
2018-10-02T03:33:30.014Z,2.90
2018-10-02T03:35:58.847Z,3.33
2018-10-02T03:38:27.964Z,3.13
2018-10-02T03:40:56.767Z,3.30
2018-10-02T03:43:26.279Z,3.23
2018-10-02T03:45:55.073Z,3.77
2018-10-02T03:48:23.905Z,4.07
2018-10-02T03:50:52.703Z,3.67
2018-10-02T03:53:21.567Z,3.20
2018-10-02T03:55:50.649Z,3.30
2018-10-02T03:58:19.616Z,3.17
2018-10-02T04:00:48.581Z,3.30
2018-10-02T04:03:17.413Z,3.13
2018-10-02T04:05:46.202Z,3.73
2018-10-02T04:08:14.984Z,3.73
2018-10-02T04:10:43.821Z,3.57
2018-10-02T04:13:12.680Z,4.20
2018-10-02T04:15:41.406Z,3.43
2018-10-02T04:18:10.139Z,3.80
2018-10-02T04:20:38.989Z,4.33
2018-10-02T04:23:07.754Z,4.53
2018-10-02T04:25:36.577Z,3.93
2018-10-02T04:28:05.416Z,4.40
2018-10-02T04:30:34.228Z,4.80
2018-10-02T04:33:03.019Z,4.20
2018-10-02T04:35:31.835Z,4.57
2018-10-02T04:38:00.626Z,5.00
2018-10-02T04:40:29.401Z,5.43
2018-10-02T04:42:58.203Z,5.03
2018-10-02T04:45:26.980Z,5.23
2018-10-02T04:47:55.845Z,5.67
2018-10-02T04:50:25.663Z,6.00
2018-10-02T04:52:54.913Z,6.10
2018-10-02T04:55:24.225Z,6.20
2018-10-02T04:57:53.046Z,6.10
2018-10-02T05:00:21.877Z,5.57
2018-10-02T05:02:50.745Z,6.83
2018-10-02T05:05:19.576Z,5.87
2018-10-02T05:07:48.353Z,5.57
2018-10-02T05:10:17.205Z,6.57
2018-10-02T05:12:45.959Z,6.57
2018-10-02T05:15:14.775Z,6.03
2018-10-02T05:17:43.540Z,6.80
2018-10-02T05:20:12.371Z,6.90
2018-10-02T05:22:41.150Z,6.87
2018-10-02T05:25:09.965Z,6.67
2018-10-02T05:27:38.831Z,6.17
2018-10-02T05:30:07.735Z,6.53
2018-10-02T05:32:36.500Z,5.87
2018-10-02T05:35:05.476Z,7.00
2018-10-02T05:37:34.265Z,5.97
2018-10-02T05:40:03.460Z,6.40
2018-10-02T05:42:32.332Z,6.00
2018-10-02T05:45:01.178Z,6.10
2018-10-02T05:47:30.022Z,6.03
2018-10-02T05:50:03.131Z,6.40
2018-10-02T05:52:31.953Z,5.50
2018-10-02T05:55:00.814Z,6.50
2018-10-02T05:57:29.964Z,5.93
2018-10-02T05:59:58.761Z,6.60
2018-10-02T06:02:29.874Z,6.53
2018-10-02T06:04:58.646Z,6.87
2018-10-02T06:07:27.666Z,6.90
2018-10-02T06:09:57.245Z,6.63
2018-10-02T06:12:26.175Z,6.77
2018-10-02T06:14:55.058Z,7.50
2018-10-02T06:17:23.857Z,7.30
2018-10-02T06:19:52.700Z,7.57
2018-10-02T06:22:21.618Z,7.73
2018-10-02T06:24:50.467Z,7.63
2018-10-02T06:27:19.250Z,8.97
2018-10-02T06:29:48.078Z,7.93
2018-10-02T06:32:16.865Z,8.30
2018-10-02T06:34:45.658Z,8.40
2018-10-02T06:37:14.477Z,9.40
2018-10-02T06:39:43.339Z,8.53
2018-10-02T06:42:12.148Z,9.97
2018-10-02T06:44:41.001Z,9.13
2018-10-02T06:47:09.814Z,9.83
2018-10-02T06:49:38.605Z,9.37
2018-10-02T06:52:07.574Z,9.37
2018-10-02T06:54:36.302Z,9.40
2018-10-02T06:57:05.446Z,9.00
2018-10-02T06:59:34.308Z,9.33
2018-10-02T07:02:03.114Z,7.87
2018-10-02T07:04:31.937Z,8.13
2018-10-02T07:07:00.840Z,7.90
2018-10-02T07:09:29.624Z,8.63
2018-10-02T07:11:58.421Z,7.70
2018-10-02T07:14:27.260Z,7.33
2018-10-02T07:16:56.020Z,8.43
2018-10-02T07:19:24.854Z,8.53
2018-10-02T07:21:53.682Z,8.20
2018-10-02T07:24:22.459Z,7.73
2018-10-02T07:26:51.553Z,7.40
2018-10-02T07:29:20.195Z,8.20
2018-10-02T07:31:49.008Z,7.67
2018-10-02T07:34:17.842Z,6.20
2018-10-02T07:36:46.782Z,6.77
2018-10-02T07:39:15.557Z,7.47
2018-10-02T07:41:44.520Z,6.27
2018-10-02T07:44:13.247Z,5.57
2018-10-02T07:46:42.085Z,6.27
2018-10-02T07:49:10.855Z,5.93
2018-10-02T07:51:39.798Z,5.67
2018-10-02T07:54:08.614Z,6.17
2018-10-02T07:56:37.421Z,6.73
2018-10-02T07:59:06.254Z,6.60
2018-10-02T08:01:35.047Z,7.37
2018-10-02T08:04:03.869Z,6.33
